sensor_id;sensor_type;location;lat;lon;timestamp;temperature;humidity
22383;DHT22;11359;45.802;13.530;2022-10-16T00:01:26;19.10;64.50
22383;DHT22;11359;45.802;13.530;2022-10-16T00:03:52;19.10;64.50
22383;DHT22;11359;45.802;13.530;2022-10-16T00:06:19;19.10;64.60
22383;DHT22;11359;45.802;13.530;2022-10-16T00:08:46;19.10;64.50
22383;DHT22;11359;45.802;13.530;2022-10-16T00:11:17;19.00;64.50
22383;DHT22;11359;45.802;13.530;2022-10-16T00:13:45;19.00;64.50
22383;DHT22;11359;45.802;13.530;2022-10-16T00:16:12;19.00;64.60
22383;DHT22;11359;45.802;13.530;2022-10-16T00:18:39;19.00;64.60
22383;DHT22;11359;45.802;13.530;2022-10-16T00:21:10;19.00;64.70
22383;DHT22;11359;45.802;13.530;2022-10-16T00:23:37;18.90;64.70
22383;DHT22;11359;45.802;13.530;2022-10-16T00:26:05;18.90;64.70
22383;DHT22;11359;45.802;13.530;2022-10-16T00:28:32;18.90;64.70
22383;DHT22;11359;45.802;13.530;2022-10-16T00:30:58;18.90;64.80
22383;DHT22;11359;45.802;13.530;2022-10-16T00:33:24;18.90;64.80
22383;DHT22;11359;45.802;13.530;2022-10-16T00:35:50;18.90;64.80
22383;DHT22;11359;45.802;13.530;2022-10-16T00:38:16;18.90;64.80
22383;DHT22;11359;45.802;13.530;2022-10-16T00:40:42;18.90;64.90
22383;DHT22;11359;45.802;13.530;2022-10-16T00:46:01;18.90;64.90
22383;DHT22;11359;45.802;13.530;2022-10-16T00:48:28;18.80;64.90
22383;DHT22;11359;45.802;13.530;2022-10-16T00:50:54;18.80;64.90
22383;DHT22;11359;45.802;13.530;2022-10-16T00:53:21;18.80;64.90
22383;DHT22;11359;45.802;13.530;2022-10-16T00:55:47;18.80;65.00
22383;DHT22;11359;45.802;13.530;2022-10-16T00:58:13;18.80;65.00
22383;DHT22;11359;45.802;13.530;2022-10-16T01:00:38;18.80;65.00
22383;DHT22;11359;45.802;13.530;2022-10-16T01:03:23;18.70;64.90
22383;DHT22;11359;45.802;13.530;2022-10-16T01:05:59;18.70;64.90
22383;DHT22;11359;45.802;13.530;2022-10-16T01:08:37;18.70;64.90
22383;DHT22;11359;45.802;13.530;2022-10-16T01:11:19;18.70;65.00
22383;DHT22;11359;45.802;13.530;2022-10-16T01:13:53;18.70;65.00
22383;DHT22;11359;45.802;13.530;2022-10-16T01:22:07;18.70;65.10
22383;DHT22;11359;45.802;13.530;2022-10-16T01:24:44;18.70;65.20
22383;DHT22;11359;45.802;13.530;2022-10-16T01:27:23;18.70;65.30
22383;DHT22;11359;45.802;13.530;2022-10-16T01:29:54;18.70;65.30
22383;DHT22;11359;45.802;13.530;2022-10-16T01:32:34;18.60;65.30
22383;DHT22;11359;45.802;13.530;2022-10-16T01:37:43;18.60;65.30
22383;DHT22;11359;45.802;13.530;2022-10-16T01:40:14;18.60;65.40
22383;DHT22;11359;45.802;13.530;2022-10-16T01:42:44;18.60;65.40
22383;DHT22;11359;45.802;13.530;2022-10-16T01:45:31;18.60;65.40
22383;DHT22;11359;45.802;13.530;2022-10-16T01:48:00;18.60;65.40
22383;DHT22;11359;45.802;13.530;2022-10-16T01:50:26;18.60;65.40
22383;DHT22;11359;45.802;13.530;2022-10-16T01:52:55;18.60;65.40
22383;DHT22;11359;45.802;13.530;2022-10-16T01:55:30;18.50;65.40
22383;DHT22;11359;45.802;13.530;2022-10-16T01:57:58;18.50;65.40
22383;DHT22;11359;45.802;13.530;2022-10-16T02:00:26;18.60;65.50
22383;DHT22;11359;45.802;13.530;2022-10-16T02:02:53;18.50;65.50
22383;DHT22;11359;45.802;13.530;2022-10-16T02:05:50;18.50;65.50
22383;DHT22;11359;45.802;13.530;2022-10-16T02:08:17;18.50;65.50
22383;DHT22;11359;45.802;13.530;2022-10-16T02:10:43;18.50;65.50
22383;DHT22;11359;45.802;13.530;2022-10-16T02:13:10;18.50;65.50
22383;DHT22;11359;45.802;13.530;2022-10-16T02:15:37;18.50;65.60
22383;DHT22;11359;45.802;13.530;2022-10-16T02:18:04;18.50;65.60
22383;DHT22;11359;45.802;13.530;2022-10-16T02:20:35;18.50;65.50
22383;DHT22;11359;45.802;13.530;2022-10-16T02:23:03;18.50;65.60
22383;DHT22;11359;45.802;13.530;2022-10-16T02:25:35;18.50;65.60
22383;DHT22;11359;45.802;13.530;2022-10-16T02:28:15;18.40;65.50
22383;DHT22;11359;45.802;13.530;2022-10-16T02:30:46;18.50;65.60
22383;DHT22;11359;45.802;13.530;2022-10-16T02:33:15;18.50;65.60
22383;DHT22;11359;45.802;13.530;2022-10-16T02:35:42;18.40;65.50
22383;DHT22;11359;45.802;13.530;2022-10-16T02:38:10;18.50;65.70
22383;DHT22;11359;45.802;13.530;2022-10-16T02:40:37;18.40;65.60
22383;DHT22;11359;45.802;13.530;2022-10-16T02:43:04;18.40;65.70
22383;DHT22;11359;45.802;13.530;2022-10-16T02:45:30;18.40;65.60
22383;DHT22;11359;45.802;13.530;2022-10-16T02:47:55;18.40;65.60
22383;DHT22;11359;45.802;13.530;2022-10-16T02:50:21;18.40;65.70
22383;DHT22;11359;45.802;13.530;2022-10-16T02:52:48;18.40;65.60
22383;DHT22;11359;45.802;13.530;2022-10-16T02:55:13;18.40;65.70
22383;DHT22;11359;45.802;13.530;2022-10-16T02:57:39;18.40;65.70
22383;DHT22;11359;45.802;13.530;2022-10-16T03:00:09;18.40;65.70
22383;DHT22;11359;45.802;13.530;2022-10-16T03:02:36;18.40;65.80
22383;DHT22;11359;45.802;13.530;2022-10-16T03:05:02;18.40;65.80
22383;DHT22;11359;45.802;13.530;2022-10-16T03:07:28;18.40;65.80
22383;DHT22;11359;45.802;13.530;2022-10-16T03:09:54;18.40;65.80
22383;DHT22;11359;45.802;13.530;2022-10-16T03:12:21;18.40;65.90
22383;DHT22;11359;45.802;13.530;2022-10-16T03:14:47;18.40;65.90
22383;DHT22;11359;45.802;13.530;2022-10-16T03:17:12;18.40;65.90
22383;DHT22;11359;45.802;13.530;2022-10-16T03:19:39;18.40;65.90
22383;DHT22;11359;45.802;13.530;2022-10-16T03:22:04;18.40;65.90
22383;DHT22;11359;45.802;13.530;2022-10-16T03:24:30;18.40;65.90
22383;DHT22;11359;45.802;13.530;2022-10-16T03:26:56;18.40;66.00
22383;DHT22;11359;45.802;13.530;2022-10-16T03:29:22;18.40;66.00
22383;DHT22;11359;45.802;13.530;2022-10-16T03:31:47;18.40;66.00
22383;DHT22;11359;45.802;13.530;2022-10-16T03:34:15;18.40;66.10
22383;DHT22;11359;45.802;13.530;2022-10-16T03:36:41;18.40;66.10
22383;DHT22;11359;45.802;13.530;2022-10-16T03:39:06;18.40;66.10
22383;DHT22;11359;45.802;13.530;2022-10-16T03:41:32;18.40;66.00
22383;DHT22;11359;45.802;13.530;2022-10-16T03:43:58;18.40;66.00
22383;DHT22;11359;45.802;13.530;2022-10-16T03:46:23;18.40;66.00
22383;DHT22;11359;45.802;13.530;2022-10-16T03:48:49;18.40;66.10
22383;DHT22;11359;45.802;13.530;2022-10-16T03:51:15;18.40;66.00
22383;DHT22;11359;45.802;13.530;2022-10-16T03:53:40;18.40;66.80
22383;DHT22;11359;45.802;13.530;2022-10-16T03:56:06;18.40;66.00
22383;DHT22;11359;45.802;13.530;2022-10-16T03:58:32;18.40;65.90
22383;DHT22;11359;45.802;13.530;2022-10-16T04:00:58;18.40;65.90
22383;DHT22;11359;45.802;13.530;2022-10-16T04:03:23;18.30;65.90
22383;DHT22;11359;45.802;13.530;2022-10-16T04:05:49;18.40;66.00
22383;DHT22;11359;45.802;13.530;2022-10-16T04:08:15;18.40;65.90
22383;DHT22;11359;45.802;13.530;2022-10-16T04:10:45;18.30;65.90
22383;DHT22;11359;45.802;13.530;2022-10-16T04:13:11;18.40;66.00
22383;DHT22;11359;45.802;13.530;2022-10-16T04:15:37;18.40;66.00
22383;DHT22;11359;45.802;13.530;2022-10-16T04:18:03;18.40;65.90
22383;DHT22;11359;45.802;13.530;2022-10-16T04:20:29;18.40;65.90
22383;DHT22;11359;45.802;13.530;2022-10-16T04:22:55;18.30;65.90
22383;DHT22;11359;45.802;13.530;2022-10-16T04:25:21;18.30;65.80
22383;DHT22;11359;45.802;13.530;2022-10-16T04:27:47;18.30;65.80
22383;DHT22;11359;45.802;13.530;2022-10-16T04:30:13;18.30;65.80
22383;DHT22;11359;45.802;13.530;2022-10-16T04:32:39;18.30;65.80
22383;DHT22;11359;45.802;13.530;2022-10-16T04:35:05;18.30;65.80
22383;DHT22;11359;45.802;13.530;2022-10-16T04:37:31;18.30;65.70
22383;DHT22;11359;45.802;13.530;2022-10-16T04:39:56;18.30;65.70
22383;DHT22;11359;45.802;13.530;2022-10-16T04:42:22;18.30;65.70
22383;DHT22;11359;45.802;13.530;2022-10-16T04:44:48;18.30;65.70
22383;DHT22;11359;45.802;13.530;2022-10-16T04:47:14;18.30;65.60
22383;DHT22;11359;45.802;13.530;2022-10-16T04:49:39;18.30;65.60
22383;DHT22;11359;45.802;13.530;2022-10-16T04:52:05;18.30;65.60
22383;DHT22;11359;45.802;13.530;2022-10-16T04:54:31;18.20;65.50
22383;DHT22;11359;45.802;13.530;2022-10-16T04:56:57;18.20;65.50
22383;DHT22;11359;45.802;13.530;2022-10-16T04:59:23;18.20;65.50
22383;DHT22;11359;45.802;13.530;2022-10-16T05:01:49;18.20;65.50
22383;DHT22;11359;45.802;13.530;2022-10-16T05:04:15;18.20;65.50
22383;DHT22;11359;45.802;13.530;2022-10-16T05:06:41;18.20;65.50
22383;DHT22;11359;45.802;13.530;2022-10-16T05:09:07;18.20;65.50
22383;DHT22;11359;45.802;13.530;2022-10-16T05:11:34;18.20;65.50
22383;DHT22;11359;45.802;13.530;2022-10-16T05:13:59;18.20;65.50
22383;DHT22;11359;45.802;13.530;2022-10-16T05:16:25;18.10;65.40
22383;DHT22;11359;45.802;13.530;2022-10-16T05:18:52;18.10;65.50
22383;DHT22;11359;45.802;13.530;2022-10-16T05:21:18;18.10;65.50
22383;DHT22;11359;45.802;13.530;2022-10-16T05:23:44;18.10;65.50
22383;DHT22;11359;45.802;13.530;2022-10-16T05:26:10;18.10;65.50
22383;DHT22;11359;45.802;13.530;2022-10-16T05:28:35;18.10;65.50
22383;DHT22;11359;45.802;13.530;2022-10-16T05:31:05;18.10;65.60
22383;DHT22;11359;45.802;13.530;2022-10-16T05:33:32;18.10;66.40
22383;DHT22;11359;45.802;13.530;2022-10-16T05:36:02;18.10;65.60
22383;DHT22;11359;45.802;13.530;2022-10-16T05:38:28;18.10;65.70
22383;DHT22;11359;45.802;13.530;2022-10-16T05:40:54;18.10;65.70
22383;DHT22;11359;45.802;13.530;2022-10-16T05:43:20;18.10;65.70
22383;DHT22;11359;45.802;13.530;2022-10-16T05:46:03;18.10;66.50
22383;DHT22;11359;45.802;13.530;2022-10-16T05:48:30;18.10;65.70
22383;DHT22;11359;45.802;13.530;2022-10-16T05:51:01;18.10;65.70
22383;DHT22;11359;45.802;13.530;2022-10-16T05:53:29;18.10;65.80
22383;DHT22;11359;45.802;13.530;2022-10-16T05:55:56;18.10;65.70
22383;DHT22;11359;45.802;13.530;2022-10-16T05:58:22;18.10;65.70
22383;DHT22;11359;45.802;13.530;2022-10-16T06:01:02;18.10;65.70
22383;DHT22;11359;45.802;13.530;2022-10-16T06:03:28;18.10;65.70
22383;DHT22;11359;45.802;13.530;2022-10-16T06:05:54;18.10;65.70
22383;DHT22;11359;45.802;13.530;2022-10-16T06:08:21;18.10;65.70
22383;DHT22;11359;45.802;13.530;2022-10-16T06:10:47;18.10;65.70
22383;DHT22;11359;45.802;13.530;2022-10-16T06:13:13;18.10;65.70
22383;DHT22;11359;45.802;13.530;2022-10-16T06:15:40;18.20;65.90
22383;DHT22;11359;45.802;13.530;2022-10-16T06:18:08;18.20;65.90
22383;DHT22;11359;45.802;13.530;2022-10-16T06:20:34;18.20;65.90
22383;DHT22;11359;45.802;13.530;2022-10-16T06:23:00;18.20;65.90
22383;DHT22;11359;45.802;13.530;2022-10-16T06:25:25;18.20;65.90
22383;DHT22;11359;45.802;13.530;2022-10-16T06:27:51;18.20;65.90
22383;DHT22;11359;45.802;13.530;2022-10-16T06:30:17;18.20;65.90
22383;DHT22;11359;45.802;13.530;2022-10-16T06:32:42;18.20;65.90
22383;DHT22;11359;45.802;13.530;2022-10-16T06:35:08;18.20;66.00
22383;DHT22;11359;45.802;13.530;2022-10-16T06:37:34;18.20;66.00
22383;DHT22;11359;45.802;13.530;2022-10-16T06:39:59;18.20;66.80
22383;DHT22;11359;45.802;13.530;2022-10-16T06:42:25;18.20;66.00
22383;DHT22;11359;45.802;13.530;2022-10-16T06:44:51;18.30;66.20
22383;DHT22;11359;45.802;13.530;2022-10-16T06:47:17;18.20;66.10
22383;DHT22;11359;45.802;13.530;2022-10-16T06:49:43;18.30;66.20
22383;DHT22;11359;45.802;13.530;2022-10-16T06:52:08;18.30;66.20
22383;DHT22;11359;45.802;13.530;2022-10-16T06:54:34;18.30;66.20
22383;DHT22;11359;45.802;13.530;2022-10-16T06:57:00;18.40;66.30
22383;DHT22;11359;45.802;13.530;2022-10-16T07:08:21;18.40;66.30
22383;DHT22;11359;45.802;13.530;2022-10-16T07:10:47;18.40;66.30
22383;DHT22;11359;45.802;13.530;2022-10-16T07:13:13;18.40;66.50
22383;DHT22;11359;45.802;13.530;2022-10-16T07:15:39;18.40;66.60
22383;DHT22;11359;45.802;13.530;2022-10-16T07:18:05;18.40;66.60
22383;DHT22;11359;45.802;13.530;2022-10-16T07:20:31;18.40;66.60
22383;DHT22;11359;45.802;13.530;2022-10-16T07:22:57;18.40;66.60
22383;DHT22;11359;45.802;13.530;2022-10-16T07:25:22;18.50;66.70
22383;DHT22;11359;45.802;13.530;2022-10-16T07:27:48;18.50;66.70
22383;DHT22;11359;45.802;13.530;2022-10-16T07:30:14;18.50;66.70
22383;DHT22;11359;45.802;13.530;2022-10-16T07:32:39;18.50;66.70
22383;DHT22;11359;45.802;13.530;2022-10-16T07:35:06;18.60;66.70
22383;DHT22;11359;45.802;13.530;2022-10-16T07:37:31;18.60;66.80
22383;DHT22;11359;45.802;13.530;2022-10-16T07:39:57;18.60;66.80
22383;DHT22;11359;45.802;13.530;2022-10-16T07:42:23;18.60;66.80
22383;DHT22;11359;45.802;13.530;2022-10-16T07:44:48;18.60;66.80
22383;DHT22;11359;45.802;13.530;2022-10-16T07:47:14;18.70;66.90
22383;DHT22;11359;45.802;13.530;2022-10-16T07:49:39;18.70;66.90
22383;DHT22;11359;45.802;13.530;2022-10-16T07:52:05;18.80;66.90
22383;DHT22;11359;45.802;13.530;2022-10-16T07:54:31;18.80;66.90
22383;DHT22;11359;45.802;13.530;2022-10-16T07:56:56;18.80;67.00
22383;DHT22;11359;45.802;13.530;2022-10-16T07:59:22;18.80;67.00
22383;DHT22;11359;45.802;13.530;2022-10-16T08:01:49;18.90;67.10
22383;DHT22;11359;45.802;13.530;2022-10-16T08:04:15;18.90;67.10
22383;DHT22;11359;45.802;13.530;2022-10-16T08:06:41;18.90;67.10
22383;DHT22;11359;45.802;13.530;2022-10-16T08:09:07;18.90;67.80
22383;DHT22;11359;45.802;13.530;2022-10-16T08:11:33;19.00;67.10
22383;DHT22;11359;45.802;13.530;2022-10-16T08:13:59;19.00;67.10
22383;DHT22;11359;45.802;13.530;2022-10-16T08:16:25;19.00;67.10
22383;DHT22;11359;45.802;13.530;2022-10-16T08:18:51;19.00;67.10
22383;DHT22;11359;45.802;13.530;2022-10-16T08:21:19;19.10;67.20
22383;DHT22;11359;45.802;13.530;2022-10-16T08:23:46;19.10;67.20
22383;DHT22;11359;45.802;13.530;2022-10-16T08:26:12;19.10;67.10
22383;DHT22;11359;45.802;13.530;2022-10-16T08:28:38;19.20;67.20
22383;DHT22;11359;45.802;13.530;2022-10-16T08:31:13;19.20;67.10
22383;DHT22;11359;45.802;13.530;2022-10-16T08:33:42;19.30;67.20
22383;DHT22;11359;45.802;13.530;2022-10-16T08:36:10;19.30;67.20
22383;DHT22;11359;45.802;13.530;2022-10-16T08:38:37;19.30;67.20
22383;DHT22;11359;45.802;13.530;2022-10-16T08:47:06;19.40;67.20
22383;DHT22;11359;45.802;13.530;2022-10-16T08:49:38;19.40;67.30
22383;DHT22;11359;45.802;13.530;2022-10-16T08:52:11;19.40;67.20
22383;DHT22;11359;45.802;13.530;2022-10-16T08:54:42;19.40;67.30
22383;DHT22;11359;45.802;13.530;2022-10-16T08:57:16;19.40;67.30
22383;DHT22;11359;45.802;13.530;2022-10-16T08:59:42;19.50;67.40
22383;DHT22;11359;45.802;13.530;2022-10-16T09:12:59;19.60;67.30
22383;DHT22;11359;45.802;13.530;2022-10-16T09:18:45;19.70;67.40
22383;DHT22;11359;45.802;13.530;2022-10-16T09:21:24;19.70;67.40
22383;DHT22;11359;45.802;13.530;2022-10-16T09:23:51;19.70;67.40
22383;DHT22;11359;45.802;13.530;2022-10-16T09:26:17;19.80;67.50
22383;DHT22;11359;45.802;13.530;2022-10-16T09:28:45;19.80;67.50
22383;DHT22;11359;45.802;13.530;2022-10-16T09:31:15;19.80;67.60
22383;DHT22;11359;45.802;13.530;2022-10-16T09:33:42;19.90;67.70
22383;DHT22;11359;45.802;13.530;2022-10-16T09:36:10;19.90;67.70
22383;DHT22;11359;45.802;13.530;2022-10-16T09:38:37;19.90;67.70
22383;DHT22;11359;45.802;13.530;2022-10-16T09:41:15;20.00;67.80
22383;DHT22;11359;45.802;13.530;2022-10-16T09:43:54;20.00;68.50
22383;DHT22;11359;45.802;13.530;2022-10-16T09:48:49;20.10;67.70
22383;DHT22;11359;45.802;13.530;2022-10-16T09:51:30;20.10;67.60
22383;DHT22;11359;45.802;13.530;2022-10-16T09:56:37;20.20;67.60
22383;DHT22;11359;45.802;13.530;2022-10-16T09:59:13;20.20;67.60
22383;DHT22;11359;45.802;13.530;2022-10-16T10:01:41;20.30;67.60
22383;DHT22;11359;45.802;13.530;2022-10-16T10:04:08;20.30;67.70
22383;DHT22;11359;45.802;13.530;2022-10-16T10:06:53;20.30;68.40
22383;DHT22;11359;45.802;13.530;2022-10-16T10:09:25;20.40;67.60
22383;DHT22;11359;45.802;13.530;2022-10-16T10:16:50;20.50;67.30
22383;DHT22;11359;45.802;13.530;2022-10-16T10:19:18;20.50;67.20
22383;DHT22;11359;45.802;13.530;2022-10-16T10:21:44;20.50;67.10
22383;DHT22;11359;45.802;13.530;2022-10-16T10:24:14;20.50;67.10
22383;DHT22;11359;45.802;13.530;2022-10-16T10:27:03;20.60;67.10
22383;DHT22;11359;45.802;13.530;2022-10-16T10:35:03;20.60;67.10
22383;DHT22;11359;45.802;13.530;2022-10-16T10:37:54;20.70;67.10
22383;DHT22;11359;45.802;13.530;2022-10-16T10:41:11;20.70;67.10
22383;DHT22;11359;45.802;13.530;2022-10-16T10:46:34;20.70;67.10
22383;DHT22;11359;45.802;13.530;2022-10-16T10:54:32;20.80;67.20
22383;DHT22;11359;45.802;13.530;2022-10-16T11:02:41;20.80;67.10
22383;DHT22;11359;45.802;13.530;2022-10-16T11:05:26;20.90;67.00
22383;DHT22;11359;45.802;13.530;2022-10-16T11:15:54;21.00;67.00
22383;DHT22;11359;45.802;13.530;2022-10-16T11:21:14;21.00;67.00
22383;DHT22;11359;45.802;13.530;2022-10-16T11:26:28;21.10;67.10
22383;DHT22;11359;45.802;13.530;2022-10-16T11:28:55;21.10;67.10
22383;DHT22;11359;45.802;13.530;2022-10-16T11:31:41;21.20;67.10
22383;DHT22;11359;45.802;13.530;2022-10-16T11:39:26;21.20;67.10
22383;DHT22;11359;45.802;13.530;2022-10-16T11:42:13;21.30;68.00
22383;DHT22;11359;45.802;13.530;2022-10-16T11:47:48;21.30;67.20
22383;DHT22;11359;45.802;13.530;2022-10-16T11:56:00;21.40;67.20
22383;DHT22;11359;45.802;13.530;2022-10-16T11:58:32;21.40;67.20
22383;DHT22;11359;45.802;13.530;2022-10-16T12:09:03;21.60;67.30
22383;DHT22;11359;45.802;13.530;2022-10-16T12:14:19;21.60;67.20
22383;DHT22;11359;45.802;13.530;2022-10-16T12:16:57;21.70;67.40
22383;DHT22;11359;45.802;13.530;2022-10-16T12:19:25;21.70;67.20
22383;DHT22;11359;45.802;13.530;2022-10-16T12:21:54;21.80;67.30
22383;DHT22;11359;45.802;13.530;2022-10-16T12:24:34;21.80;67.20
22383;DHT22;11359;45.802;13.530;2022-10-16T12:27:01;21.90;67.30
22383;DHT22;11359;45.802;13.530;2022-10-16T12:29:37;21.90;67.10
22383;DHT22;11359;45.802;13.530;2022-10-16T12:32:32;21.90;67.00
22383;DHT22;11359;45.802;13.530;2022-10-16T12:35:00;21.90;66.90
22383;DHT22;11359;45.802;13.530;2022-10-16T12:37:33;22.00;67.60
22383;DHT22;11359;45.802;13.530;2022-10-16T12:40:12;22.00;66.70
22383;DHT22;11359;45.802;13.530;2022-10-16T12:42:38;22.10;66.70
22383;DHT22;11359;45.802;13.530;2022-10-16T12:45:31;22.10;66.60
22383;DHT22;11359;45.802;13.530;2022-10-16T12:47:58;22.10;66.60
22383;DHT22;11359;45.802;13.530;2022-10-16T12:50:36;22.10;66.60
22383;DHT22;11359;45.802;13.530;2022-10-16T12:53:19;22.20;66.60
22383;DHT22;11359;45.802;13.530;2022-10-16T12:55:58;22.20;66.50
22383;DHT22;11359;45.802;13.530;2022-10-16T12:58:45;22.20;66.50
22383;DHT22;11359;45.802;13.530;2022-10-16T13:01:26;22.20;66.40
22383;DHT22;11359;45.802;13.530;2022-10-16T13:04:20;22.30;66.50
22383;DHT22;11359;45.802;13.530;2022-10-16T13:07:03;22.30;66.40
22383;DHT22;11359;45.802;13.530;2022-10-16T13:15:27;22.30;66.30
22383;DHT22;11359;45.802;13.530;2022-10-16T13:21:29;22.40;66.30
22383;DHT22;11359;45.802;13.530;2022-10-16T13:29:18;22.40;66.30
22383;DHT22;11359;45.802;13.530;2022-10-16T13:31:45;22.40;66.30
22383;DHT22;11359;45.802;13.530;2022-10-16T13:34:15;22.40;66.20
22383;DHT22;11359;45.802;13.530;2022-10-16T13:36:45;22.50;66.30
22383;DHT22;11359;45.802;13.530;2022-10-16T13:39:15;22.50;66.10
22383;DHT22;11359;45.802;13.530;2022-10-16T13:41:43;22.50;66.10
22383;DHT22;11359;45.802;13.530;2022-10-16T13:44:18;22.50;66.10
22383;DHT22;11359;45.802;13.530;2022-10-16T13:46:57;22.50;66.00
22383;DHT22;11359;45.802;13.530;2022-10-16T13:49:23;22.60;65.90
22383;DHT22;11359;45.802;13.530;2022-10-16T13:51:56;22.60;65.90
22383;DHT22;11359;45.802;13.530;2022-10-16T13:54:23;22.60;65.70
22383;DHT22;11359;45.802;13.530;2022-10-16T13:56:48;22.60;65.60
22383;DHT22;11359;45.802;13.530;2022-10-16T13:59:33;22.60;65.60
22383;DHT22;11359;45.802;13.530;2022-10-16T14:01:59;22.60;65.60
22383;DHT22;11359;45.802;13.530;2022-10-16T14:04:32;22.60;65.60
22383;DHT22;11359;45.802;13.530;2022-10-16T14:06:58;22.60;65.60
22383;DHT22;11359;45.802;13.530;2022-10-16T14:09:30;22.60;65.60
22383;DHT22;11359;45.802;13.530;2022-10-16T14:12:03;22.60;65.70
22383;DHT22;11359;45.802;13.530;2022-10-16T14:14:52;22.60;65.70
22383;DHT22;11359;45.802;13.530;2022-10-16T14:17:30;22.70;65.90
22383;DHT22;11359;45.802;13.530;2022-10-16T14:20:00;22.70;65.90
22383;DHT22;11359;45.802;13.530;2022-10-16T14:23:04;22.70;65.90
22383;DHT22;11359;45.802;13.530;2022-10-16T14:25:43;22.80;66.10
22383;DHT22;11359;45.802;13.530;2022-10-16T14:28:22;22.80;65.90
22383;DHT22;11359;45.802;13.530;2022-10-16T14:30:56;22.90;65.90
22383;DHT22;11359;45.802;13.530;2022-10-16T14:38:30;23.00;65.60
22383;DHT22;11359;45.802;13.530;2022-10-16T14:40:58;23.00;65.40
22383;DHT22;11359;45.802;13.530;2022-10-16T14:43:42;23.00;65.30
22383;DHT22;11359;45.802;13.530;2022-10-16T14:46:15;23.00;65.10
22383;DHT22;11359;45.802;13.530;2022-10-16T14:48:43;23.00;64.90
22383;DHT22;11359;45.802;13.530;2022-10-16T14:51:18;23.00;64.90
22383;DHT22;11359;45.802;13.530;2022-10-16T14:53:45;23.00;64.90
22383;DHT22;11359;45.802;13.530;2022-10-16T14:56:35;22.90;64.80
22383;DHT22;11359;45.802;13.530;2022-10-16T14:59:14;22.90;64.60
22383;DHT22;11359;45.802;13.530;2022-10-16T15:01:43;22.80;64.50
22383;DHT22;11359;45.802;13.530;2022-10-16T15:04:11;22.90;64.50
22383;DHT22;11359;45.802;13.530;2022-10-16T15:06:37;22.80;64.20
22383;DHT22;11359;45.802;13.530;2022-10-16T15:09:03;22.80;64.20
22383;DHT22;11359;45.802;13.530;2022-10-16T15:11:31;22.80;64.10
22383;DHT22;11359;45.802;13.530;2022-10-16T15:13:57;22.70;64.00
22383;DHT22;11359;45.802;13.530;2022-10-16T15:16:23;22.70;63.90
22383;DHT22;11359;45.802;13.530;2022-10-16T15:18:49;22.70;64.00
22383;DHT22;11359;45.802;13.530;2022-10-16T15:21:35;22.70;63.90
22383;DHT22;11359;45.802;13.530;2022-10-16T15:24:01;22.70;63.90
22383;DHT22;11359;45.802;13.530;2022-10-16T15:26:28;22.60;63.80
22383;DHT22;11359;45.802;13.530;2022-10-16T15:28:54;22.60;63.80
22383;DHT22;11359;45.802;13.530;2022-10-16T15:31:20;22.60;63.80
22383;DHT22;11359;45.802;13.530;2022-10-16T15:33:50;22.60;63.70
22383;DHT22;11359;45.802;13.530;2022-10-16T15:36:28;22.60;63.80
22383;DHT22;11359;45.802;13.530;2022-10-16T15:38:54;22.50;63.70
22383;DHT22;11359;45.802;13.530;2022-10-16T15:41:21;22.50;63.70
22383;DHT22;11359;45.802;13.530;2022-10-16T15:43:48;22.50;63.70
22383;DHT22;11359;45.802;13.530;2022-10-16T15:46:17;22.50;63.60
22383;DHT22;11359;45.802;13.530;2022-10-16T15:48:43;22.50;63.60
22383;DHT22;11359;45.802;13.530;2022-10-16T15:51:09;22.40;63.50
22383;DHT22;11359;45.802;13.530;2022-10-16T15:53:34;22.40;63.60
22383;DHT22;11359;45.802;13.530;2022-10-16T15:56:05;22.40;63.60
22383;DHT22;11359;45.802;13.530;2022-10-16T15:58:31;22.30;63.50
22383;DHT22;11359;45.802;13.530;2022-10-16T16:01:00;22.30;63.50
22383;DHT22;11359;45.802;13.530;2022-10-16T16:03:28;22.30;63.60
22383;DHT22;11359;45.802;13.530;2022-10-16T16:05:54;22.30;63.60
22383;DHT22;11359;45.802;13.530;2022-10-16T16:08:20;22.30;63.60
22383;DHT22;11359;45.802;13.530;2022-10-16T16:11:10;22.30;63.60
22383;DHT22;11359;45.802;13.530;2022-10-16T16:13:36;22.20;63.60
22383;DHT22;11359;45.802;13.530;2022-10-16T16:16:07;22.20;63.60
22383;DHT22;11359;45.802;13.530;2022-10-16T16:18:33;22.20;63.60
22383;DHT22;11359;45.802;13.530;2022-10-16T16:20:59;22.20;63.70
22383;DHT22;11359;45.802;13.530;2022-10-16T16:23:25;22.10;63.60
22383;DHT22;11359;45.802;13.530;2022-10-16T16:26:15;22.10;63.60
22383;DHT22;11359;45.802;13.530;2022-10-16T16:28:46;22.10;63.60
22383;DHT22;11359;45.802;13.530;2022-10-16T16:31:12;22.00;63.60
22383;DHT22;11359;45.802;13.530;2022-10-16T16:33:37;22.00;63.60
22383;DHT22;11359;45.802;13.530;2022-10-16T16:36:04;22.00;63.70
22383;DHT22;11359;45.802;13.530;2022-10-16T16:38:32;22.00;63.70
22383;DHT22;11359;45.802;13.530;2022-10-16T16:40:58;21.90;64.50
22383;DHT22;11359;45.802;13.530;2022-10-16T16:43:27;21.90;63.70
22383;DHT22;11359;45.802;13.530;2022-10-16T16:45:53;21.90;63.80
22383;DHT22;11359;45.802;13.530;2022-10-16T16:48:19;21.80;63.80
22383;DHT22;11359;45.802;13.530;2022-10-16T16:50:45;21.80;63.80
22383;DHT22;11359;45.802;13.530;2022-10-16T16:53:11;21.80;63.90
22383;DHT22;11359;45.802;13.530;2022-10-16T16:55:36;21.80;64.00
22383;DHT22;11359;45.802;13.530;2022-10-16T16:58:02;21.70;64.00
22383;DHT22;11359;45.802;13.530;2022-10-16T17:00:29;21.70;64.00
22383;DHT22;11359;45.802;13.530;2022-10-16T17:02:56;21.70;64.00
22383;DHT22;11359;45.802;13.530;2022-10-16T17:05:22;21.70;64.00
22383;DHT22;11359;45.802;13.530;2022-10-16T17:07:48;21.70;64.00
22383;DHT22;11359;45.802;13.530;2022-10-16T17:10:14;21.60;64.00
22383;DHT22;11359;45.802;13.530;2022-10-16T17:12:39;21.60;64.00
22383;DHT22;11359;45.802;13.530;2022-10-16T17:15:06;21.50;63.90
22383;DHT22;11359;45.802;13.530;2022-10-16T17:17:32;21.60;64.10
22383;DHT22;11359;45.802;13.530;2022-10-16T17:19:58;21.50;64.10
22383;DHT22;11359;45.802;13.530;2022-10-16T17:22:23;21.50;65.00
22383;DHT22;11359;45.802;13.530;2022-10-16T17:24:49;21.50;64.20
22383;DHT22;11359;45.802;13.530;2022-10-16T17:27:19;21.50;64.20
22383;DHT22;11359;45.802;13.530;2022-10-16T17:29:49;21.40;64.30
22383;DHT22;11359;45.802;13.530;2022-10-16T17:32:14;21.40;64.30
22383;DHT22;11359;45.802;13.530;2022-10-16T17:34:40;21.40;64.30
22383;DHT22;11359;45.802;13.530;2022-10-16T17:37:06;21.40;64.40